TimeEST,TemperatureF,Dew PointF,Humidity,Sea Level PressureIn,VisibilityMPH,Wind Direction,Wind SpeedMPH,Gust SpeedMPH,PrecipitationIn,Events,Conditions,WindDirDegrees,DateUTC
12:53 AM,48.9,37.0,64,30.17,10.0,Calm,Calm,-,N/A,,Clear,0,2013-03-05 05:53:00
2:53 AM,46.9,35.1,63,30.16,10.0,Calm,Calm,-,N/A,,Clear,0,2013-03-05 07:53:00
3:53 AM,45.0,35.1,68,30.15,10.0,Calm,Calm,-,N/A,,Clear,0,2013-03-05 08:53:00
4:53 AM,48.9,39.9,71,30.15,10.0,South,3.5,-,N/A,,Clear,170,2013-03-05 09:53:00
5:53 AM,50.0,42.1,74,30.16,10.0,SE,3.5,-,N/A,,Clear,140,2013-03-05 10:53:00
6:53 AM,48.2,39.2,71,30.18,10.0,Calm,Calm,-,N/A,,Clear,0,2013-03-05 11:53:00
7:53 AM,53.6,41.0,62,30.18,10.0,SSE,3.5,-,N/A,,Clear,150,2013-03-05 12:53:00
8:53 AM,59.0,43.0,55,30.20,10.0,South,4.6,-,N/A,,Clear,190,2013-03-05 13:53:00
9:53 AM,63.0,48.0,58,30.19,10.0,South,5.8,-,N/A,,Clear,180,2013-03-05 14:53:00
10:10 AM,62.6,48.2,59,30.19,10.0,South,5.8,-,N/A,,Clear,180,2013-03-05 15:10:00
10:33 AM,62.6,51.8,68,30.19,10.0,South,5.8,-,N/A,,Clear,190,2013-03-05 15:33:00
10:53 AM,64.9,51.1,61,30.19,10.0,SSE,8.1,-,N/A,,Partly Cloudy,160,2013-03-05 15:53:00
11:53 AM,66.9,52.0,59,30.19,10.0,South,9.2,-,N/A,,Partly Cloudy,190,2013-03-05 16:53:00
12:53 PM,68.0,53.1,59,30.17,10.0,SW,4.6,-,N/A,,Partly Cloudy,230,2013-03-05 17:53:00
1:53 PM,69.1,54.0,58,30.13,10.0,SSW,8.1,-,N/A,,Partly Cloudy,200,2013-03-05 18:53:00
2:53 PM,70.0,53.1,55,30.12,10.0,South,10.4,-,N/A,,Partly Cloudy,180,2013-03-05 19:53:00
3:53 PM,70.0,53.1,55,30.12,10.0,SSW,8.1,-,N/A,,Partly Cloudy,200,2013-03-05 20:53:00
4:53 PM,70.0,51.1,51,30.11,10.0,SW,10.4,-,N/A,,Partly Cloudy,230,2013-03-05 21:53:00
5:53 PM,66.0,54.0,65,30.11,10.0,SW,9.2,-,N/A,,Clear,220,2013-03-05 22:53:00
6:53 PM,64.0,54.0,70,30.10,10.0,SSW,8.1,-,N/A,,Partly Cloudy,200,2013-03-05 23:53:00
7:53 PM,63.0,57.0,81,30.09,10.0,South,8.1,-,N/A,,Clear,180,2013-03-06 00:53:00
8:53 PM,63.0,57.9,84,30.07,10.0,South,10.4,-,N/A,,Clear,180,2013-03-06 01:53:00
9:53 PM,63.0,59.0,87,30.07,10.0,South,8.1,-,N/A,,Clear,190,2013-03-06 02:53:00
10:53 PM,64.0,60.1,87,30.07,10.0,South,10.4,-,N/A,,Mostly Cloudy,190,2013-03-06 03:53:00
11:53 PM,64.0,60.1,87,30.06,10.0,SSW,11.5,-,N/A,,Scattered Clouds,200,2013-03-06 04:53:00